Buie, Arkansas
Current Conditions -  °F | °C
As of 8:53 PM on Monday 20 Oct 2014 (Local Time) from KLIT Reporting Station
Clear Clear  
Wind Chill: 62°   Ceiling: Unl
Heat Index: 62°   Visibility: 10mi
Dew Point: 54°   Wind: 7mph
Humidity: 75%   Direction: 250°WSW
Pressure: 30.04"   Gusts: NA
Location:  34.2978°N, 92.5047°W
Report Text: KLIT 210153Z 25006KT 10SM CLR 17/12 A3004 RMK AO2 SLP173 T01670122
Loading
Personal Weather Stations






























Interactive Weather Map
Tropical Storm Tracking
New forecast layout! Learn more

10-Day Weather Forecast

Advertisements
Track Severe Weather on mobile